Time;durP1;ratioP1;P1;durP2;ratioP2;P2;SDS_P1;SDS_P2;PMS_P1;PMS_P2;Temp;Humidity;BMP_temperature;BMP_pressure;BME280_temperature;BME280_humidity;BME280_pressure;Samples;Min_cycle;Max_cycle;Signal;HPM_P1;HPM_P2
2021/12/02 00:00:46;;;;;;;26.08;18.05;;;5.60;99.90;;;;;;4995213;28;20037;-85
2021/12/02 00:03:12;;;;;;;23.65;17.77;;;5.50;99.90;;;;;;5026244;28;20069;-85
2021/12/02 00:05:38;;;;;;;26.60;18.52;;;5.50;99.90;;;;;;5035823;28;20021;-85
2021/12/02 00:08:04;;;;;;;27.77;19.02;;;5.50;99.90;;;;;;5032122;28;20045;-86
2021/12/02 00:10:31;;;;;;;28.88;17.70;;;5.50;99.90;;;;;;5036818;28;20390;-86
2021/12/02 00:13:01;;;;;;;26.48;18.55;;;5.50;99.90;;;;;;5034533;28;20103;-85
2021/12/02 00:15:39;;;;;;;25.55;18.35;;;5.50;99.90;;;;;;5035337;28;20022;-85
2021/12/02 00:18:31;;;;;;;25.67;19.17;;;5.50;99.90;;;;;;5035497;28;20033;-85
2021/12/02 00:21:09;;;;;;;32.13;19.38;;;5.50;99.90;;;;;;5034288;28;20021;-85
2021/12/02 00:23:59;;;;;;;25.48;18.20;;;5.50;99.90;;;;;;5035443;28;20035;-86
2021/12/02 00:26:26;;;;;;;27.02;18.55;;;5.50;99.90;;;;;;5034890;28;20044;-85
2021/12/02 00:28:56;;;;;;;28.98;19.20;;;5.40;99.90;;;;;;5030659;28;20409;-85
2021/12/02 00:31:29;;;;;;;29.67;20.05;;;5.30;99.90;;;;;;5036262;28;20083;-86
2021/12/02 00:33:58;;;;;;;27.33;18.98;;;5.20;99.90;;;;;;5035607;28;20505;-85
2021/12/02 00:36:26;;;;;;;27.90;19.30;;;5.10;99.90;;;;;;5033757;28;20037;-85
2021/12/02 00:38:53;;;;;;;28.83;20.35;;;5.10;99.90;;;;;;5034984;28;20024;-86
2021/12/02 00:41:21;;;;;;;33.38;21.02;;;5.00;99.90;;;;;;5033617;28;20043;-86
2021/12/02 00:43:51;;;;;;;32.38;20.65;;;5.00;99.90;;;;;;5031957;28;20049;-85
2021/12/02 00:46:20;;;;;;;30.65;21.08;;;4.90;99.90;;;;;;5035821;28;20033;-86
2021/12/02 00:48:46;;;;;;;31.58;21.17;;;5.00;99.90;;;;;;5034854;28;20124;-86
2021/12/02 00:51:12;;;;;;;29.80;21.60;;;5.00;99.90;;;;;;5035243;28;20024;-86
2021/12/02 00:53:45;;;;;;;30.10;21.30;;;5.00;99.90;;;;;;5035144;28;20025;-86
2021/12/02 00:56:16;;;;;;;31.60;22.45;;;5.10;99.90;;;;;;5032146;28;20031;-85
2021/12/02 00:58:46;;;;;;;31.45;20.88;;;5.20;99.90;;;;;;5032275;28;20512;-86
2021/12/02 01:01:14;;;;;;;27.88;20.20;;;5.20;99.90;;;;;;5035260;28;20035;-85
2021/12/02 01:03:39;;;;;;;26.83;20.02;;;5.20;99.90;;;;;;5033467;28;20511;-85
2021/12/02 01:06:06;;;;;;;27.70;19.95;;;5.30;99.90;;;;;;5034744;28;20033;-85
2021/12/02 01:08:34;;;;;;;27.92;20.15;;;5.30;99.90;;;;;;5034523;28;20030;-85
2021/12/02 01:11:00;;;;;;;29.30;20.77;;;5.30;99.90;;;;;;5030786;28;20022;-85
2021/12/02 01:13:26;;;;;;;29.65;20.92;;;5.30;99.90;;;;;;5036345;28;20060;-85
2021/12/02 01:15:52;;;;;;;28.27;19.95;;;5.30;99.90;;;;;;5033130;28;20069;-85
2021/12/02 01:18:19;;;;;;;27.20;19.55;;;5.40;99.90;;;;;;5034375;28;20053;-85
2021/12/02 01:20:49;;;;;;;28.15;19.67;;;5.40;99.90;;;;;;5034461;28;20025;-86
2021/12/02 01:23:16;;;;;;;29.58;19.83;;;5.30;99.90;;;;;;5032678;28;20175;-85
2021/12/02 01:25:47;;;;;;;26.83;18.88;;;5.30;99.90;;;;;;5032132;28;20021;-85
2021/12/02 01:28:13;;;;;;;31.95;21.20;;;5.30;99.90;;;;;;5034223;28;20057;-85
2021/12/02 01:30:41;;;;;;;27.50;19.58;;;5.30;99.90;;;;;;5034357;28;20040;-85
2021/12/02 01:33:07;;;;;;;29.58;19.27;;;5.00;99.90;;;;;;5034792;28;20401;-85
2021/12/02 01:35:34;;;;;;;26.15;18.48;;;5.00;99.90;;;;;;5034341;28;20020;-85
2021/12/02 01:38:00;;;;;;;25.83;18.08;;;5.20;99.90;;;;;;5029915;28;20497;-85
2021/12/02 01:40:27;;;;;;;25.05;18.02;;;5.20;99.90;;;;;;5035984;28;20036;-84
2021/12/02 01:42:58;;;;;;;23.27;17.65;;;5.20;99.90;;;;;;5033899;28;20040;-85
2021/12/02 01:45:28;;;;;;;25.23;17.70;;;5.20;99.90;;;;;;5034308;28;20030;-85
2021/12/02 01:47:56;;;;;;;26.52;18.63;;;5.10;99.90;;;;;;5034494;28;20030;-85
2021/12/02 01:50:24;;;;;;;25.17;18.60;;;5.10;99.90;;;;;;5032843;28;20548;-85
2021/12/02 01:52:58;;;;;;;27.77;18.95;;;5.10;99.90;;;;;;5030445;28;20045;-85
2021/12/02 01:55:27;;;;;;;29.85;21.63;;;5.10;99.90;;;;;;5042997;28;20161;-85
2021/12/02 01:58:05;;;;;;;29.42;22.52;;;5.10;99.90;;;;;;5034192;28;20397;-85
2021/12/02 02:00:44;;;;;;;29.48;22.27;;;5.10;99.90;;;;;;5034196;28;20033;-85
2021/12/02 02:03:11;;;;;;;30.38;21.05;;;5.10;99.90;;;;;;5034558;28;20105;-85
2021/12/02 02:05:38;;;;;;;31.92;22.48;;;5.10;99.90;;;;;;5034059;28;20484;-85
2021/12/02 02:08:10;;;;;;;29.00;21.63;;;5.10;99.90;;;;;;5030127;28;20109;-85
2021/12/02 02:10:40;;;;;;;30.48;21.67;;;5.10;99.90;;;;;;5033748;28;20033;-85
2021/12/02 02:13:09;;;;;;;30.00;21.42;;;5.00;99.90;;;;;;5035543;28;20091;-85
2021/12/02 02:15:36;;;;;;;28.27;20.67;;;5.10;99.90;;;;;;5034049;28;20116;-85
2021/12/02 02:18:35;;;;;;;29.10;21.77;;;5.10;99.90;;;;;;5033981;28;20025;-85
2021/12/02 02:23:29;;;;;;;28.15;19.95;;;5.10;99.90;;;;;;5033309;28;20028;-85
2021/12/02 02:25:55;;;;;;;30.20;20.98;;;5.00;99.90;;;;;;5029365;28;20056;-85
2021/12/02 02:28:21;;;;;;;30.77;21.92;;;5.00;99.90;;;;;;5035862;28;20054;-85
2021/12/02 02:30:47;;;;;;;31.15;21.45;;;5.00;99.90;;;;;;5033314;28;20048;-85
2021/12/02 02:33:14;;;;;;;32.95;23.48;;;5.00;99.90;;;;;;5032748;28;20027;-85
2021/12/02 02:35:41;;;;;;;35.42;24.85;;;4.90;99.90;;;;;;5033264;28;20021;-85
2021/12/02 02:38:07;;;;;;;34.28;24.08;;;5.00;99.90;;;;;;5030565;28;20032;-85
2021/12/02 02:40:34;;;;;;;38.00;25.70;;;5.00;99.90;;;;;;5033658;28;20021;-84
2021/12/02 02:43:07;;;;;;;39.80;26.98;;;5.00;99.90;;;;;;5034307;28;20555;-85
2021/12/02 02:45:34;;;;;;;37.97;25.75;;;5.10;99.90;;;;;;5034021;28;20470;-85
2021/12/02 02:47:59;;;;;;;35.92;27.02;;;5.10;99.90;;;;;;5033554;28;20041;-85
2021/12/02 02:50:25;;;;;;;41.47;26.98;;;5.10;99.90;;;;;;5032629;28;20370;-85
2021/12/02 02:53:08;;;;;;;39.10;27.48;;;5.10;99.90;;;;;;5033274;28;20063;-85
2021/12/02 02:55:35;;;;;;;41.65;28.40;;;5.20;99.90;;;;;;5046727;28;20021;-85
2021/12/02 03:00:34;;;;;;;36.50;25.73;;;5.00;99.90;;;;;;5037008;28;20462;-85
2021/12/02 03:05:59;;;;;;;36.85;25.95;;;5.10;99.90;;;;;;5036374;28;20079;-85
2021/12/02 03:08:31;;;;;;;38.33;26.52;;;5.10;99.90;;;;;;5023152;28;20041;-84
2021/12/02 03:10:58;;;;;;;38.67;26.88;;;5.10;99.90;;;;;;5015834;28;20028;-85
2021/12/02 03:13:37;;;;;;;42.67;27.42;;;5.10;99.90;;;;;;5038695;28;20036;-85
2021/12/02 03:18:51;;;;;;;39.92;28.27;;;5.10;99.90;;;;;;5036630;28;20052;-85
2021/12/02 03:21:19;;;;;;;36.38;25.92;;;5.20;99.90;;;;;;5036481;28;20034;-85
2021/12/02 03:23:53;;;;;;;39.05;26.73;;;5.20;99.90;;;;;;5036660;28;20079;-85
2021/12/02 03:26:18;;;;;;;43.95;28.17;;;5.20;99.90;;;;;;5034686;28;20036;-85
2021/12/02 03:28:47;;;;;;;43.35;28.33;;;5.10;99.90;;;;;;5034751;28;20029;-85
2021/12/02 03:31:13;;;;;;;40.97;28.25;;;4.80;99.90;;;;;;5038980;28;20026;-85
2021/12/02 03:33:41;;;;;;;40.38;27.33;;;5.00;99.90;;;;;;5036402;28;20449;-84
2021/12/02 03:36:06;;;;;;;38.67;27.63;;;5.00;99.90;;;;;;5036376;28;20111;-84
2021/12/02 03:38:32;;;;;;;42.38;28.83;;;5.00;99.90;;;;;;5036120;28;20029;-84
2021/12/02 03:40:57;;;;;;;42.70;27.75;;;5.00;99.90;;;;;;5032017;28;20030;-84
2021/12/02 03:43:23;;;;;;;40.25;28.30;;;5.40;99.90;;;;;;5038118;28;20025;-85
2021/12/02 03:45:49;;;;;;;40.38;27.50;;;5.00;99.90;;;;;;5037083;28;20480;-84
2021/12/02 03:48:15;;;;;;;41.90;28.25;;;5.30;99.90;;;;;;5035971;28;20420;-85
2021/12/02 03:50:41;;;;;;;38.03;27.02;;;5.40;99.90;;;;;;5034676;28;20033;-85
2021/12/02 03:53:06;;;;;;;44.47;28.88;;;5.10;99.90;;;;;;5032387;28;20025;-85
2021/12/02 03:55:32;;;;;;;43.30;29.05;;;5.10;99.90;;;;;;5036710;28;20033;-84
2021/12/02 03:57:57;;;;;;;46.50;28.85;;;4.80;99.90;;;;;;5037508;28;20094;-84
2021/12/02 04:00:23;;;;;;;42.95;28.88;;;5.10;99.90;;;;;;5035867;28;20026;-85
2021/12/02 04:02:49;;;;;;;44.15;29.42;;;4.80;99.90;;;;;;5035616;28;20472;-84
2021/12/02 04:05:15;;;;;;;50.25;30.33;;;4.80;99.90;;;;;;5033807;28;20087;-85
2021/12/02 04:07:40;;;;;;;48.25;29.52;;;4.90;99.90;;;;;;5033629;28;20045;-85
2021/12/02 04:10:06;;;;;;;46.20;30.75;;;4.90;99.90;;;;;;5037269;28;20026;-84
2021/12/02 04:12:50;;;;;;;43.15;30.25;;;4.90;99.90;;;;;;5035747;28;20493;-84
2021/12/02 04:15:23;;;;;;;46.15;29.77;;;5.10;99.90;;;;;;5035744;28;20029;-84
2021/12/02 04:17:50;;;;;;;46.92;30.10;;;5.00;99.90;;;;;;5035336;28;20107;-84
2021/12/02 04:20:19;;;;;;;49.60;30.88;;;5.20;99.90;;;;;;5031966;28;20148;-85
2021/12/02 04:22:45;;;;;;;53.70;31.70;;;5.20;99.90;;;;;;5032661;28;20052;-84
2021/12/02 04:25:12;;;;;;;49.13;30.58;;;4.90;99.90;;;;;;5037504;28;20084;-85
2021/12/02 04:27:38;;;;;;;52.97;32.47;;;4.90;99.90;;;;;;5035501;28;20612;-84
2021/12/02 04:30:06;;;;;;;50.28;30.80;;;4.90;99.90;;;;;;5033850;28;20037;-85
2021/12/02 04:32:32;;;;;;;49.67;31.48;;;4.90;99.90;;;;;;5035092;28;20078;-85
2021/12/02 04:34:58;;;;;;;51.15;30.63;;;4.80;99.90;;;;;;5031093;28;20042;-84
2021/12/02 04:37:23;;;;;;;47.60;30.08;;;4.90;99.90;;;;;;5036785;28;20104;-84
2021/12/02 04:39:49;;;;;;;51.95;31.48;;;5.00;99.90;;;;;;5035055;28;20037;-84
2021/12/02 04:42:15;;;;;;;49.47;30.73;;;4.80;99.90;;;;;;5035470;28;20064;-85
2021/12/02 04:44:40;;;;;;;47.17;30.70;;;4.80;99.90;;;;;;5034969;28;20084;-84
2021/12/02 04:47:06;;;;;;;46.83;29.55;;;4.90;99.90;;;;;;5031794;28;20021;-85
2021/12/02 04:49:32;;;;;;;45.13;29.52;;;5.00;99.90;;;;;;5035287;28;20127;-85
2021/12/02 04:51:58;;;;;;;52.15;30.80;;;4.90;99.90;;;;;;5035532;28;20442;-84
2021/12/02 04:54:24;;;;;;;49.40;30.00;;;4.90;99.90;;;;;;5035646;28;20087;-85
2021/12/02 04:56:49;;;;;;;52.67;30.48;;;4.90;99.90;;;;;;5034869;28;20423;-85
2021/12/02 04:59:15;;;;;;;49.03;29.75;;;4.80;99.90;;;;;;5032871;28;20405;-84
2021/12/02 05:01:41;;;;;;;50.83;31.15;;;4.90;99.90;;;;;;5032753;28;20025;-85
2021/12/02 05:04:06;;;;;;;47.95;29.05;;;4.90;99.90;;;;;;5036821;28;20068;-84
2021/12/02 05:06:32;;;;;;;48.90;29.63;;;4.90;99.90;;;;;;5034417;28;20036;-85
2021/12/02 05:08:58;;;;;;;48.38;29.83;;;4.80;99.90;;;;;;5033105;28;20045;-84
2021/12/02 05:11:24;;;;;;;50.97;31.08;;;4.80;99.90;;;;;;5033556;28;20544;-84
2021/12/02 05:13:50;;;;;;;47.72;29.25;;;4.80;99.90;;;;;;5030700;28;20026;-84
2021/12/02 05:16:16;;;;;;;50.92;28.60;;;4.80;99.90;;;;;;5036619;28;20036;-84
2021/12/02 05:18:42;;;;;;;52.58;30.77;;;4.80;99.90;;;;;;5034847;28;20037;-85
2021/12/02 05:21:08;;;;;;;51.60;30.20;;;4.80;99.90;;;;;;5034295;28;20559;-85
2021/12/02 05:23:33;;;;;;;52.03;30.30;;;4.80;99.90;;;;;;5034517;28;20021;-85
2021/12/02 05:25:59;;;;;;;51.90;29.83;;;4.80;99.90;;;;;;5030073;28;20080;-85
2021/12/02 05:28:25;;;;;;;53.42;30.75;;;5.20;99.90;;;;;;5035273;28;20057;-85
2021/12/02 05:30:51;;;;;;;52.85;29.90;;;4.80;99.90;;;;;;5034147;28;20032;-84
2021/12/02 05:33:17;;;;;;;56.75;31.00;;;4.80;99.90;;;;;;5034382;28;20038;-84
2021/12/02 05:35:44;;;;;;;56.80;31.30;;;4.80;99.90;;;;;;5033972;28;20032;-85
2021/12/02 05:38:09;;;;;;;57.30;31.17;;;4.70;99.90;;;;;;5031505;28;20540;-84
2021/12/02 05:40:35;;;;;;;57.10;31.20;;;4.70;99.90;;;;;;5034159;28;20030;-85
2021/12/02 05:43:01;;;;;;;59.35;31.83;;;4.70;99.90;;;;;;5035105;28;20033;-85
2021/12/02 05:45:27;;;;;;;50.95;30.48;;;4.70;99.90;;;;;;5034142;28;20040;-84
2021/12/02 05:47:52;;;;;;;56.42;30.00;;;4.60;99.90;;;;;;5032736;28;20041;-84
2021/12/02 05:50:18;;;;;;;55.85;30.05;;;4.50;99.90;;;;;;5032011;28;20409;-85
2021/12/02 05:52:44;;;;;;;51.88;29.50;;;4.50;99.90;;;;;;5031845;28;20453;-85
2021/12/02 05:55:09;;;;;;;62.40;31.33;;;4.30;99.90;;;;;;5036010;28;20489;-85
2021/12/02 05:57:35;;;;;;;57.05;31.08;;;4.50;99.90;;;;;;5034093;28;20116;-85
2021/12/02 06:00:01;;;;;;;56.60;31.15;;;4.10;99.90;;;;;;5033816;28;20108;-85
2021/12/02 06:02:27;;;;;;;56.00;30.00;;;4.00;99.90;;;;;;5033510;28;20052;-84
2021/12/02 06:04:53;;;;;;;58.13;30.10;;;3.90;99.90;;;;;;5029851;28;20025;-84
2021/12/02 06:07:20;;;;;;;57.97;30.95;;;4.30;99.90;;;;;;5035754;28;20032;-85
2021/12/02 06:09:46;;;;;;;59.65;30.73;;;3.80;99.90;;;;;;5034363;28;20044;-84
2021/12/02 06:12:12;;;;;;;56.15;30.08;;;3.80;99.90;;;;;;5033757;28;20029;-84
2021/12/02 06:14:38;;;;;;;54.50;28.90;;;3.80;99.90;;;;;;5034465;28;20064;-85
2021/12/02 06:17:04;;;;;;;54.58;27.52;;;3.70;99.90;;;;;;5030475;28;20068;-84
2021/12/02 06:19:30;;;;;;;55.90;29.65;;;3.70;99.90;;;;;;5034284;28;20033;-84
2021/12/02 06:21:56;;;;;;;54.13;27.88;;;3.80;99.90;;;;;;5034809;28;20056;-85
2021/12/02 06:24:31;;;;;;;50.38;25.80;;;3.90;99.90;;;;;;5033504;28;20033;-84
2021/12/02 06:26:57;;;;;;;59.95;29.58;;;3.90;99.90;;;;;;5033603;28;20056;-84
2021/12/02 06:29:23;;;;;;;61.00;31.98;;;3.90;99.90;;;;;;5035830;28;20029;-84
2021/12/02 06:31:48;;;;;;;61.97;33.58;;;4.00;99.90;;;;;;5033640;28;20144;-84
2021/12/02 06:34:14;;;;;;;63.08;34.45;;;4.10;99.90;;;;;;5039268;28;20036;-85
2021/12/02 06:36:39;;;;;;;59.00;32.92;;;4.20;99.90;;;;;;5037444;28;20497;-85
2021/12/02 06:39:06;;;;;;;70.32;37.45;;;4.30;99.90;;;;;;5037785;28;20604;-85
2021/12/02 06:41:33;;;;;;;73.13;37.97;;;4.40;99.90;;;;;;5037435;28;20025;-85
2021/12/02 06:43:59;;;;;;;66.68;35.30;;;4.50;99.90;;;;;;5032968;28;20029;-84
2021/12/02 06:46:25;;;;;;;66.57;36.25;;;4.50;99.90;;;;;;5053222;28;20083;-83
2021/12/02 06:48:50;;;;;;;69.18;35.53;;;4.50;99.90;;;;;;5037262;28;20133;-84
2021/12/02 06:51:19;;;;;;;68.00;35.22;;;4.60;99.90;;;;;;5037018;28;20109;-85
2021/12/02 06:53:45;;;;;;;63.03;34.15;;;5.10;99.90;;;;;;5037424;28;20036;-87
2021/12/02 06:56:11;;;;;;;64.72;33.83;;;4.60;99.90;;;;;;5034538;28;20018;-88
2021/12/02 06:58:36;;;;;;;62.28;34.10;;;4.60;99.90;;;;;;5036490;28;20481;-87
2021/12/02 07:01:03;;;;;;;63.67;34.47;;;4.70;99.90;;;;;;5037677;28;20031;-88
2021/12/02 07:03:28;;;;;;;63.40;34.17;;;4.70;99.90;;;;;;5036784;28;20497;-87
2021/12/02 07:05:55;;;;;;;62.00;33.92;;;5.00;99.90;;;;;;5035936;28;20026;-87
2021/12/02 07:08:21;;;;;;;68.70;35.17;;;4.80;99.90;;;;;;5035165;28;20029;-86
2021/12/02 07:10:47;;;;;;;68.68;34.03;;;4.80;99.90;;;;;;5033787;28;20116;-86
2021/12/02 07:13:12;;;;;;;60.58;33.78;;;4.80;99.90;;;;;;5039443;28;20441;-85
2021/12/02 07:15:45;;;;;;;66.15;33.00;;;4.60;1.00;;;;;;5036674;28;20425;-86
2021/12/02 07:18:15;;;;;;;60.47;32.45;;;4.60;89.50;;;;;;5036792;28;20034;-87
2021/12/02 07:20:41;;;;;;;64.20;32.92;;;4.70;99.90;;;;;;5036627;28;20020;-86
2021/12/02 07:23:07;;;;;;;59.90;30.90;;;4.70;99.90;;;;;;5033719;28;20116;-85
2021/12/02 07:25:33;;;;;;;61.55;32.53;;;5.10;1.00;;;;;;5036515;28;20025;-85
2021/12/02 07:28:01;;;;;;;61.10;33.55;;;4.80;99.90;;;;;;5036586;28;20054;-85
2021/12/02 07:30:27;;;;;;;59.92;32.20;;;4.70;91.50;;;;;;5035997;28;20021;-85
2021/12/02 07:32:55;;;;;;;59.95;33.78;;;4.70;1.00;;;;;;5036448;28;20036;-85
2021/12/02 07:35:21;;;;;;;62.72;33.40;;;4.80;91.10;;;;;;5035168;28;20028;-85
2021/12/02 07:37:49;;;;;;;53.72;30.70;;;4.50;1.00;;;;;;5032764;28;20030;-85
2021/12/02 07:40:17;;;;;;;56.30;30.17;;;4.70;1.00;;;;;;5038096;28;20486;-86
2021/12/02 07:42:45;;;;;;;60.22;32.70;;;4.90;1.00;;;;;;5036417;28;20406;-85
2021/12/02 07:45:11;;;;;;;62.67;33.72;;;5.10;1.00;;;;;;5034089;28;20119;-85
2021/12/02 07:47:39;;;;;;;72.05;38.40;;;5.20;1.00;;;;;;5036268;28;20128;-87
2021/12/02 07:50:07;;;;;;;72.25;39.08;;;5.30;1.00;;;;;;5032132;28;20037;-84
2021/12/02 07:52:34;;;;;;;68.32;36.97;;;5.50;1.00;;;;;;5036035;28;20489;-86
2021/12/02 07:55:06;;;;;;;67.15;36.20;;;5.50;99.90;;;;;;5037186;28;20033;-89
2021/12/02 07:57:34;;;;;;;58.53;34.30;;;5.50;99.90;;;;;;5036117;28;20378;-85
2021/12/02 08:00:00;;;;;;;58.60;33.45;;;5.50;99.90;;;;;;5035488;28;20037;-85
2021/12/02 08:02:32;;;;;;;56.78;31.27;;;5.60;99.90;;;;;;5035374;28;20021;-85
2021/12/02 08:04:58;;;;;;;51.78;30.02;;;5.70;99.90;;;;;;5015925;28;20072;-85
2021/12/02 08:07:24;;;;;;;52.72;30.50;;;5.40;99.90;;;;;;5037655;28;20049;-85
2021/12/02 08:09:49;;;;;;;52.05;30.75;;;5.50;99.90;;;;;;5035648;28;20098;-86
2021/12/02 08:12:15;;;;;;;48.15;30.88;;;6.10;99.90;;;;;;5036476;28;20040;-85
2021/12/02 08:14:40;;;;;;;50.35;30.15;;;5.90;99.90;;;;;;5035403;28;20108;-85
2021/12/02 08:17:06;;;;;;;50.40;30.10;;;6.60;99.90;;;;;;5032281;28;20021;-86
2021/12/02 08:19:32;;;;;;;46.03;29.25;;;6.70;99.90;;;;;;5034638;28;20025;-86
2021/12/02 08:21:57;;;;;;;46.92;29.38;;;6.30;99.90;;;;;;5035934;28;20030;-85
2021/12/02 08:24:25;;;;;;;41.67;27.00;;;6.20;99.90;;;;;;5033913;28;20119;-86
2021/12/02 08:26:52;;;;;;;44.95;27.20;;;6.30;99.90;;;;;;5034986;28;20556;-85
2021/12/02 08:29:17;;;;;;;42.78;26.95;;;6.00;99.90;;;;;;5033166;28;20429;-86
2021/12/02 08:31:44;;;;;;;42.95;26.52;;;6.00;99.90;;;;;;5032996;28;20029;-86
2021/12/02 08:34:09;;;;;;;43.15;26.50;;;6.00;99.90;;;;;;5035244;28;20100;-86
2021/12/02 08:36:44;;;;;;;37.03;24.20;;;6.30;99.90;;;;;;5035343;28;20152;-86
2021/12/02 08:39:16;;;;;;;40.20;26.23;;;6.00;99.90;;;;;;5035437;28;20034;-86
2021/12/02 08:41:45;;;;;;;40.35;24.95;;;6.40;99.90;;;;;;5035611;28;20028;-85
2021/12/02 08:44:11;;;;;;;38.15;24.83;;;6.00;99.90;;;;;;5032030;28;20036;-85
2021/12/02 08:46:36;;;;;;;40.55;23.52;;;6.10;99.90;;;;;;5035028;28;20025;-86
2021/12/02 08:49:03;;;;;;;42.35;26.35;;;6.60;99.90;;;;;;5035219;28;20037;-86
2021/12/02 08:51:29;;;;;;;38.40;22.67;;;6.20;99.90;;;;;;5034940;28;20036;-86
2021/12/02 08:53:54;;;;;;;33.95;21.98;;;6.30;99.90;;;;;;5035239;28;20025;-85
2021/12/02 08:56:20;;;;;;;35.75;22.23;;;6.30;99.90;;;;;;5033431;28;20477;-85
2021/12/02 08:58:46;;;;;;;32.38;21.48;;;6.50;99.90;;;;;;5031736;28;20135;-85
2021/12/02 09:01:13;;;;;;;29.40;21.50;;;6.20;99.90;;;;;;5036848;28;20048;-85
2021/12/02 09:03:38;;;;;;;33.25;21.52;;;6.20;99.90;;;;;;5033335;28;20513;-85
2021/12/02 09:06:09;;;;;;;33.72;21.20;;;6.50;99.90;;;;;;5034636;28;20026;-85
2021/12/02 09:08:35;;;;;;;33.97;22.63;;;6.10;99.90;;;;;;5034965;28;20120;-85
2021/12/02 09:11:01;;;;;;;37.80;22.10;;;6.10;99.90;;;;;;5031164;28;20026;-85
2021/12/02 09:13:26;;;;;;;30.98;19.83;;;6.10;99.90;;;;;;5036094;28;20033;-85
2021/12/02 09:15:52;;;;;;;27.75;19.83;;;6.10;99.90;;;;;;5034767;28;20034;-85
2021/12/02 09:18:18;;;;;;;34.75;20.92;;;6.10;99.90;;;;;;5034562;28;20102;-85
2021/12/02 09:20:43;;;;;;;32.05;20.67;;;6.10;99.90;;;;;;5034480;28;20032;-86
2021/12/02 09:23:09;;;;;;;32.20;21.25;;;6.20;99.90;;;;;;5031476;28;20021;-86
2021/12/02 09:25:35;;;;;;;35.45;22.00;;;6.20;99.90;;;;;;5034586;28;20030;-86
2021/12/02 09:28:01;;;;;;;35.55;22.33;;;6.10;99.90;;;;;;5034569;28;20045;-85
2021/12/02 09:30:27;;;;;;;34.80;22.80;;;6.10;99.90;;;;;;5034597;28;20037;-86
2021/12/02 09:32:53;;;;;;;34.17;22.55;;;6.20;99.90;;;;;;5034415;28;20032;-86
2021/12/02 09:35:19;;;;;;;35.05;20.70;;;6.20;99.90;;;;;;5032668;28;20037;-85
2021/12/02 09:37:45;;;;;;;35.00;22.75;;;6.10;99.90;;;;;;5031452;28;20071;-86
2021/12/02 09:40:13;;;;;;;36.05;22.17;;;6.50;99.90;;;;;;5036684;28;20029;-86
2021/12/02 09:42:40;;;;;;;35.60;21.92;;;6.10;99.90;;;;;;5032685;28;20120;-86
2021/12/02 09:45:07;;;;;;;33.45;22.30;;;6.10;99.90;;;;;;5034196;28;20120;-85
2021/12/02 09:47:39;;;;;;;36.10;21.92;;;6.30;99.90;;;;;;5034122;28;20116;-86
2021/12/02 09:50:11;;;;;;;31.42;21.13;;;6.60;99.90;;;;;;5030497;28;20033;-86
2021/12/02 09:52:39;;;;;;;27.52;18.60;;;6.50;99.90;;;;;;5033710;28;20029;-85
2021/12/02 09:55:33;;;;;;;29.70;18.17;;;7.10;99.90;;;;;;5035604;28;20041;-85
2021/12/02 09:57:57;;;;;;;24.77;16.67;;;6.50;99.90;;;;;;5034635;28;20033;-86
2021/12/02 10:00:36;;;;;;;22.17;15.77;;;7.00;99.90;;;;;;5035190;28;20032;-86
2021/12/02 10:03:05;;;;;;;25.45;16.00;;;7.00;99.90;;;;;;5038180;28;20113;-85
2021/12/02 10:05:42;;;;;;;22.80;15.88;;;7.00;99.90;;;;;;5038395;28;20408;-86
2021/12/02 10:08:12;;;;;;;24.23;15.60;;;6.60;99.90;;;;;;5020600;28;20025;-85
2021/12/02 10:10:53;;;;;;;25.80;15.25;;;6.70;99.90;;;;;;5036952;28;20466;-86
2021/12/02 10:13:26;;;;;;;21.85;13.60;;;6.90;99.90;;;;;;5039001;28;20025;-86
2021/12/02 10:16:16;;;;;;;19.95;13.55;;;7.50;99.90;;;;;;5037987;28;20052;-86
2021/12/02 10:19:02;;;;;;;21.05;13.40;;;7.70;99.90;;;;;;5037876;28;20230;-86
2021/12/02 10:24:16;;;;;;;18.00;11.82;;;7.50;99.90;;;;;;5037202;28;20029;-86
2021/12/02 10:26:49;;;;;;;15.77;11.55;;;7.40;99.90;;;;;;5037555;28;20044;-85
2021/12/02 10:29:21;;;;;;;15.80;11.07;;;7.80;99.90;;;;;;5035579;28;20040;-85
2021/12/02 10:32:12;;;;;;;17.65;11.38;;;7.60;99.90;;;;;;5035461;28;20036;-86
2021/12/02 10:34:57;;;;;;;16.88;11.63;;;7.10;99.90;;;;;;5050776;28;20033;-85
2021/12/02 10:37:27;;;;;;;18.40;11.18;;;7.10;99.90;;;;;;5039253;28;20501;-85
2021/12/02 10:40:10;;;;;;;17.73;11.60;;;7.10;99.90;;;;;;5037077;28;20030;-85
2021/12/02 10:42:38;;;;;;;16.15;11.32;;;7.10;99.90;;;;;;5037400;28;20083;-85
2021/12/02 10:45:06;;;;;;;17.05;10.23;;;7.00;99.90;;;;;;5037292;28;20036;-85
2021/12/02 10:47:34;;;;;;;19.35;10.70;;;7.00;99.90;;;;;;5037376;28;20467;-85
2021/12/02 10:50:06;;;;;;;20.13;11.55;;;6.90;99.90;;;;;;5033262;28;20465;-85
2021/12/02 10:52:34;;;;;;;16.48;10.70;;;6.90;99.90;;;;;;5050298;28;20025;-85
2021/12/02 10:55:02;;;;;;;16.25;11.07;;;6.90;99.90;;;;;;5036089;28;20033;-85
2021/12/02 10:57:30;;;;;;;16.85;11.23;;;6.90;99.90;;;;;;5037162;28;20087;-85
2021/12/02 11:00:03;;;;;;;16.00;11.00;;;6.80;99.90;;;;;;5035694;28;20116;-85
2021/12/02 11:02:35;;;;;;;15.40;11.10;;;7.20;99.90;;;;;;5036912;28;20037;-85
2021/12/02 11:05:20;;;;;;;17.80;11.30;;;6.80;99.90;;;;;;5017435;28;20022;-85
2021/12/02 11:07:53;;;;;;;16.17;11.48;;;6.70;99.90;;;;;;5034687;28;20026;-85
2021/12/02 11:10:19;;;;;;;14.57;11.00;;;6.80;99.90;;;;;;5038734;28;20052;-85
2021/12/02 11:12:48;;;;;;;19.83;12.32;;;6.90;99.90;;;;;;5034976;28;20021;-86
2021/12/02 11:15:14;;;;;;;15.65;11.23;;;6.80;99.90;;;;;;5037414;28;20452;-85
2021/12/02 11:17:54;;;;;;;18.15;11.40;;;6.90;99.90;;;;;;5037617;28;20021;-85
2021/12/02 11:20:28;;;;;;;19.58;12.52;;;7.00;99.90;;;;;;5035154;28;20021;-85
2021/12/02 11:22:59;;;;;;;18.27;12.02;;;7.20;99.90;;;;;;5032367;28;20035;-85
2021/12/02 11:25:25;;;;;;;17.52;11.85;;;7.20;99.90;;;;;;5038674;28;20037;-85
2021/12/02 11:27:53;;;;;;;15.80;11.50;;;7.50;99.90;;;;;;5036709;28;20054;-85
2021/12/02 11:30:22;;;;;;;18.15;12.50;;;7.20;99.90;;;;;;5036491;28;20080;-85
2021/12/02 11:33:00;;;;;;;16.80;11.50;;;7.60;99.90;;;;;;5036244;28;20443;-86
2021/12/02 11:35:39;;;;;;;16.90;11.80;;;7.20;99.90;;;;;;5035614;28;20048;-86
2021/12/02 11:38:09;;;;;;;15.18;11.52;;;7.30;99.90;;;;;;5015463;28;20034;-85
2021/12/02 11:40:39;;;;;;;19.73;13.65;;;7.30;99.90;;;;;;5036573;28;20071;-85
2021/12/02 11:43:07;;;;;;;18.75;10.90;;;7.20;99.90;;;;;;5037738;28;20045;-86
2021/12/02 11:45:38;;;;;;;15.52;10.60;;;7.60;99.90;;;;;;5036253;28;20037;-85
2021/12/02 11:48:04;;;;;;;13.35;10.25;;;7.40;99.90;;;;;;5036457;28;20033;-86
2021/12/02 11:50:30;;;;;;;16.35;10.23;;;7.20;99.90;;;;;;5035934;28;20104;-86
2021/12/02 11:52:57;;;;;;;16.00;10.23;;;7.30;99.90;;;;;;5031814;28;20113;-85
2021/12/02 11:55:29;;;;;;;14.40;10.45;;;7.30;99.90;;;;;;5037873;28;20029;-86
2021/12/02 11:57:56;;;;;;;16.13;9.80;;;7.30;99.90;;;;;;5035144;28;20112;-86
2021/12/02 12:00:23;;;;;;;18.70;11.05;;;7.30;99.90;;;;;;5034733;28;20030;-85
2021/12/02 12:03:02;;;;;;;18.10;11.00;;;7.80;99.90;;;;;;5035522;28;20071;-85
2021/12/02 12:05:35;;;;;;;16.75;11.57;;;7.70;99.90;;;;;;5035049;28;20028;-86
2021/12/02 12:08:01;;;;;;;15.80;9.95;;;8.20;99.90;;;;;;5016487;28;20033;-86
2021/12/02 12:10:40;;;;;;;14.68;9.07;;;8.60;99.90;;;;;;5037833;28;20017;-86
2021/12/02 12:13:16;;;;;;;14.88;9.63;;;8.00;99.90;;;;;;5037086;28;20041;-86
2021/12/02 12:15:46;;;;;;;16.65;9.27;;;7.90;99.90;;;;;;5035767;28;20028;-86
2021/12/02 12:18:20;;;;;;;12.85;9.45;;;7.90;99.90;;;;;;5034228;28;20439;-86
2021/12/02 12:21:05;;;;;;;11.18;8.80;;;8.00;99.90;;;;;;5035691;28;20017;-86
2021/12/02 12:23:32;;;;;;;13.43;8.18;;;8.00;99.90;;;;;;5035139;28;20064;-86
2021/12/02 12:26:22;;;;;;;13.82;8.88;;;8.20;99.90;;;;;;5031659;28;20022;-86
2021/12/02 12:29:09;;;;;;;11.75;7.80;;;8.10;99.90;;;;;;5045442;28;20045;-86
2021/12/02 12:31:57;;;;;;;16.17;9.27;;;8.40;99.90;;;;;;5044738;28;20098;-86
2021/12/02 12:36:54;;;;;;;10.23;6.50;;;8.60;99.90;;;;;;5035579;28;20026;-86
2021/12/02 12:39:23;;;;;;;6.90;5.43;;;7.90;99.90;;;;;;5035423;28;20034;-86
2021/12/02 12:42:15;;;;;;;8.65;5.75;;;7.90;99.90;;;;;;5035018;28;20028;-86
2021/12/02 12:45:00;;;;;;;6.82;4.43;;;7.30;99.90;;;;;;5035013;28;20060;-86
2021/12/02 12:47:43;;;;;;;6.40;3.72;;;7.20;99.90;;;;;;5033632;28;20025;-86
2021/12/02 12:50:35;;;;;;;6.93;3.42;;;7.30;99.90;;;;;;5017187;28;20034;-86
2021/12/02 12:53:04;;;;;;;6.00;4.03;;;7.20;99.90;;;;;;5015432;28;20014;-85
2021/12/02 12:55:39;;;;;;;7.53;3.25;;;7.50;99.90;;;;;;5036427;28;20485;-86
2021/12/02 12:58:18;;;;;;;10.23;3.10;;;7.60;99.90;;;;;;5035780;28;20025;-86
2021/12/02 13:01:20;;;;;;;6.72;4.10;;;7.60;99.90;;;;;;5034792;28;20367;-86
2021/12/02 13:04:08;;;;;;;4.03;2.00;;;7.60;99.90;;;;;;5034315;28;20053;-86